SVPL1: Red River at Shreveport Site 2

                                SHEF ID:       SVPL1     Red River at Shreveport Site 2
STATION TYPE:

PRECIP STAGE RIV-FLOW VOLTAGE
in ft cfs volt
Ccp-Rev Ccp-Rev Ccp-Rev Ccp-Rev
(America/Chicago)
02/19 00:00 0.00 14.02 3400 12.79
02/19 01:00 0.00 14.01 3200 12.78
02/19 02:00 0.00 13.93 2692 12.77
02/19 03:00 0.00 13.93 2692 12.76
02/19 04:00 0.00 14.05 4000 12.76
02/19 05:00 0.00 14.07 4400 12.75
02/19 06:00 0.00 14.10 5000 12.75
02/19 07:00 0.00 14.11 5125 12.77
02/19 08:00 0.00 13.99 2956 12.86
02/19 09:00 0.00 14.05 4000 13.19
02/19 10:00 0.00 14.03 3600 13.14
02/19 11:00 0.00 14.00 3000 13.38
02/19 12:00 0.00 14.10 5000 14.33
02/19 13:00 0.00 14.08 4600 13.23
02/19 14:00 0.00 14.15 5625 13.34
02/19 15:00 0.00 14.22 6500 13.21
02/19 16:00 0.00 14.19 6125 13.05
02/19 17:00 0.00 14.24 6750 12.93
02/19 18:00 0.00 14.34 8000 12.91
02/19 19:00 0.00 14.26 7000 12.90
02/19 20:00 0.00 14.38 8500 12.88
02/19 21:00 0.00 14.39 8625 12.86
02/19 22:00 0.00 14.40 8750 12.86
02/19 23:00 0.00 14.39 8625 12.86
Data processed at Fri 20Feb2026 05:24 GMT

NOTICE: If you are parsing this page

Please convert to using our Data API. Starting early 2026 we will be migrating to: https://water.usace.army.mil with modern pages rendered in JavaScript. When this migration completes you will no longer be able to scrape this page! CWMSDataAPI (CDA)

Timeseries IDs (TSIDs)

TSIDs used from left to right in the data table
SHRE.Precip-Inc.Total.1Hour.1Hour.Ccp-Rev
SHRE.Stage.Inst.1Hour.0.Ccp-Rev
SHRE.Flow.Inst.1Hour.0.Ccp-Rev
SHRE.Volt-Battery.Inst.1Hour.0.Ccp-Rev

                            

All information presented herein is the property of the government of the United States of America and may be revised or deleted at any time without prior notice. Dissemination of this information without the expressed written consent of the Public Affairs Office, Tulsa District U.S. Army Corps of Engineers is strictly prohibited. These data are gathered electronically and, as presented, have NOT undergone any form of quality control. These data are NOT guaranteed to be valid or correct.